Time;durP1;ratioP1;P1;durP2;ratioP2;P2;SDS_P1;SDS_P2;PMS_P1;PMS_P2;Temp;Humidity;BMP_temperature;BMP_pressure;BME280_temperature;BME280_humidity;BME280_pressure;Samples;Min_cycle;Max_cycle;Signal;HPM_P1;HPM_P2
2021/06/06 13:26:40;;;;;;;5.05;0.77;;;23.20;54.10;;;;;;6180801;22;20029;-84
2021/06/06 13:29:13;;;;;;;2.20;0.63;;;23.10;54.70;;;;;;6186354;23;20036;-86
2021/06/06 13:31:54;;;;;;;1.73;0.70;;;23.10;55.10;;;;;;6184367;23;20001;-86
2021/06/06 13:34:21;;;;;;;;;;;23.20;54.90;;;;;;6185401;23;20009;-86
2021/06/06 13:36:51;;;;;;;2.10;0.60;;;23.10;54.90;;;;;;6182835;23;20356;-86
2021/06/06 13:39:24;;;;;;;2.03;0.90;;;23.10;54.80;;;;;;6183437;23;20088;-86
2021/06/06 13:41:51;;;;;;;2.85;0.50;;;23.10;55.00;;;;;;6183124;23;20027;-84
2021/06/06 13:44:17;;;;;;;2.97;0.70;;;23.10;55.10;;;;;;6184405;23;20063;-85
2021/06/06 13:46:44;;;;;;;1.00;0.60;;;23.00;55.40;;;;;;6183882;23;20032;-84
2021/06/06 13:49:11;;;;;;;0.57;0.47;;;23.00;55.50;;;;;;6184274;23;20084;-83
2021/06/06 13:51:38;;;;;;;2.72;0.63;;;23.00;55.50;;;;;;6182967;23;20016;-84
2021/06/06 13:54:05;;;;;;;1.75;0.63;;;22.90;55.30;;;;;;6182246;23;20450;-83
2021/06/06 13:56:31;;;;;;;2.30;0.77;;;22.80;55.60;;;;;;6181772;23;20446;-83
2021/06/06 13:59:01;;;;;;;1.13;0.85;;;22.80;55.60;;;;;;6182797;23;20016;-83
2021/06/06 14:01:28;;;;;;;2.53;0.70;;;22.80;55.60;;;;;;6184125;23;20001;-83
2021/06/06 14:03:55;;;;;;;1.20;0.60;;;22.80;55.80;;;;;;6185591;23;20020;-84
2021/06/06 14:06:25;;;;;;;4.32;0.80;;;22.80;55.90;;;;;;6184652;23;20005;-83
2021/06/06 14:08:51;;;;;;;1.77;0.70;;;22.80;56.00;;;;;;6179350;23;20005;-84
2021/06/06 14:11:22;;;;;;;1.02;0.57;;;22.70;55.70;;;;;;6181805;23;20012;-84
2021/06/06 14:13:48;;;;;;;1.13;0.30;;;22.70;55.60;;;;;;6182760;23;20005;-84
2021/06/06 14:16:19;;;;;;;0.70;0.40;;;22.70;55.40;;;;;;6181729;23;20016;-84
2021/06/06 14:18:48;;;;;;;1.70;0.40;;;22.80;55.30;;;;;;6182478;23;20445;-84
2021/06/06 14:21:18;;;;;;;1.45;0.50;;;22.80;55.10;;;;;;6182636;23;20001;-84
2021/06/06 14:23:46;;;;;;;2.15;0.52;;;22.70;55.10;;;;;;6180608;23;20633;-84
2021/06/06 14:26:12;;;;;;;4.68;0.70;;;22.60;55.20;;;;;;6151053;23;20010;-84
2021/06/06 14:28:38;;;;;;;1.38;0.50;;;22.70;55.20;;;;;;6127540;23;20048;-84
2021/06/06 14:31:05;;;;;;;0.85;0.40;;;22.70;55.10;;;;;;6150005;23;20009;-84
2021/06/06 14:33:31;;;;;;;3.42;0.73;;;22.70;55.00;;;;;;6153223;23;20002;-84
2021/06/06 14:36:01;;;;;;;3.13;0.60;;;22.70;55.00;;;;;;6150920;23;20002;-84
2021/06/06 14:38:29;;;;;;;1.30;0.60;;;22.70;54.90;;;;;;6151530;23;20001;-84
2021/06/06 14:40:56;;;;;;;1.80;0.50;;;22.80;54.90;;;;;;6151339;23;20002;-84
2021/06/06 14:43:24;;;;;;;2.60;0.70;;;22.70;54.80;;;;;;6152635;23;20088;-84
2021/06/06 14:45:53;;;;;;;1.35;0.50;;;22.70;54.90;;;;;;6153698;23;20039;-84
2021/06/06 14:48:24;;;;;;;0.93;0.50;;;22.70;55.00;;;;;;6153886;23;20009;-84
2021/06/06 14:50:51;;;;;;;0.60;0.50;;;22.80;55.00;;;;;;6153319;23;20016;-84
2021/06/06 14:53:20;;;;;;;1.23;0.50;;;22.70;55.10;;;;;;6153587;23;20506;-84
2021/06/06 14:55:47;;;;;;;0.63;0.50;;;22.70;55.00;;;;;;6155223;23;19997;-84
2021/06/06 14:58:13;;;;;;;2.33;0.57;;;22.70;55.10;;;;;;6154739;23;20442;-84
2021/06/06 15:01:20;;;;;;;2.70;0.70;;;22.70;55.20;;;;;;6153528;23;20001;-84
2021/06/06 15:03:47;;;;;;;1.33;0.60;;;22.70;55.40;;;;;;6153377;23;20041;-84
2021/06/06 15:06:14;;;;;;;2.60;0.63;;;22.60;55.50;;;;;;6151401;23;20005;-84
2021/06/06 15:08:40;;;;;;;1.13;0.43;;;22.60;55.80;;;;;;6153486;23;20428;-84
2021/06/06 15:11:07;;;;;;;1.40;0.45;;;22.50;55.90;;;;;;6152211;23;20354;-84
2021/06/06 15:13:38;;;;;;;1.30;0.60;;;22.60;55.90;;;;;;6150742;23;20028;-84
2021/06/06 15:16:06;;;;;;;1.48;0.60;;;22.40;55.80;;;;;;6152171;23;20001;-84
2021/06/06 15:18:36;;;;;;;1.08;0.50;;;22.50;56.10;;;;;;6154257;23;20478;-84
2021/06/06 15:21:18;;;;;;;1.35;0.50;;;22.30;56.40;;;;;;6154766;23;20032;-84
2021/06/06 15:23:49;;;;;;;1.05;0.73;;;22.30;56.70;;;;;;6154339;23;20364;-85
2021/06/06 15:26:17;;;;;;;0.50;0.30;;;22.30;56.80;;;;;;6153052;23;20001;-84
2021/06/06 15:28:43;;;;;;;1.65;0.70;;;22.30;57.10;;;;;;6154113;23;20009;-84
2021/06/06 15:31:11;;;;;;;3.83;0.60;;;22.30;57.70;;;;;;6154915;23;20335;-84
2021/06/06 15:33:43;;;;;;;0.63;0.50;;;22.30;58.20;;;;;;6154500;23;20394;-84
2021/06/06 15:36:11;;;;;;;3.00;0.83;;;22.20;59.00;;;;;;6154318;23;20029;-84
2021/06/06 15:38:51;;;;;;;2.05;0.70;;;22.20;59.40;;;;;;6154410;23;20009;-84
2021/06/06 15:41:22;;;;;;;1.77;0.60;;;22.20;60.20;;;;;;6153861;23;20442;-84
2021/06/06 15:43:50;;;;;;;1.30;0.60;;;22.20;60.60;;;;;;6152626;23;20037;-84
2021/06/06 15:46:19;;;;;;;1.00;0.60;;;22.10;60.70;;;;;;6154549;23;20005;-84
2021/06/06 15:48:47;;;;;;;1.63;0.60;;;22.10;61.10;;;;;;6153254;23;20367;-83
2021/06/06 15:51:16;;;;;;;5.20;0.70;;;22.00;61.40;;;;;;6154631;23;20412;-84
2021/06/06 15:53:43;;;;;;;4.25;0.50;;;21.90;61.40;;;;;;6152472;23;20013;-84
2021/06/06 15:56:10;;;;;;;1.10;0.60;;;21.80;61.80;;;;;;6152764;23;20036;-84
2021/06/06 15:58:37;;;;;;;1.08;0.50;;;21.70;62.00;;;;;;6152693;23;20013;-84
2021/06/06 16:01:03;;;;;;;1.33;0.50;;;21.60;62.30;;;;;;6153036;23;20096;-84
2021/06/06 16:03:31;;;;;;;0.57;0.57;;;21.70;62.70;;;;;;6152753;23;20014;-84
2021/06/06 16:06:00;;;;;;;0.57;0.40;;;21.60;62.70;;;;;;6152604;23;20006;-84
2021/06/06 16:08:31;;;;;;;0.50;0.43;;;21.60;62.70;;;;;;6151362;23;20005;-84
2021/06/06 16:10:57;;;;;;;3.20;0.40;;;21.60;62.80;;;;;;6153902;23;19997;-84
2021/06/06 16:13:24;;;;;;;1.60;0.38;;;21.50;62.80;;;;;;6154269;23;20009;-84
2021/06/06 16:15:50;;;;;;;1.05;0.30;;;21.40;62.70;;;;;;6153689;23;20092;-84
2021/06/06 16:18:16;;;;;;;0.85;0.30;;;21.30;62.90;;;;;;6154902;23;20009;-84
2021/06/06 16:20:42;;;;;;;1.65;0.50;;;21.20;63.30;;;;;;6153839;23;20005;-84
2021/06/06 16:23:09;;;;;;;1.13;0.40;;;21.20;63.60;;;;;;6153916;23;20056;-84
2021/06/06 16:25:37;;;;;;;1.50;0.40;;;21.20;63.80;;;;;;6154515;23;20595;-84
2021/06/06 16:28:04;;;;;;;2.00;0.40;;;21.20;63.80;;;;;;6153667;23;20017;-84
2021/06/06 16:30:31;;;;;;;2.03;0.30;;;21.10;63.80;;;;;;6153969;23;20005;-85
2021/06/06 16:32:59;;;;;;;1.33;0.40;;;21.10;64.20;;;;;;6154079;23;20009;-85
2021/06/06 16:35:28;;;;;;;0.88;0.43;;;21.10;64.20;;;;;;6153817;23;20006;-84
2021/06/06 16:37:54;;;;;;;2.35;0.40;;;21.10;64.00;;;;;;6153382;23;20005;-84
2021/06/06 16:40:22;;;;;;;1.73;0.30;;;21.10;64.10;;;;;;6153445;23;20009;-84
2021/06/06 16:42:49;;;;;;;1.30;0.40;;;21.10;64.00;;;;;;6153003;23;20009;-84
2021/06/06 16:45:24;;;;;;;0.75;0.40;;;21.20;64.10;;;;;;6156239;23;20001;-84
2021/06/06 16:47:50;;;;;;;2.70;0.40;;;21.20;64.10;;;;;;6154609;23;20451;-84
2021/06/06 16:50:17;;;;;;;1.67;0.63;;;21.10;64.10;;;;;;6154204;23;20359;-84
2021/06/06 16:52:43;;;;;;;0.40;0.40;;;21.10;64.00;;;;;;6154074;23;20001;-84
2021/06/06 16:55:21;;;;;;;1.50;0.30;;;21.00;64.40;;;;;;6154373;23;20064;-84
2021/06/06 16:57:48;;;;;;;0.50;0.40;;;21.00;64.80;;;;;;6154388;23;20052;-84
2021/06/06 17:00:18;;;;;;;2.45;0.30;;;21.00;65.00;;;;;;6154486;23;20446;-84
2021/06/06 17:02:44;;;;;;;0.93;0.40;;;20.90;65.50;;;;;;6154500;23;20005;-84
2021/06/06 17:05:11;;;;;;;1.40;0.50;;;20.90;65.60;;;;;;6154483;23;20009;-86
2021/06/06 17:07:37;;;;;;;1.17;0.40;;;20.80;66.00;;;;;;6154607;23;20508;-86
2021/06/06 17:10:06;;;;;;;5.85;4.10;;;20.80;66.30;;;;;;6155721;23;20080;-85
2021/06/06 17:12:33;;;;;;;19.98;17.98;;;20.80;66.60;;;;;;6153975;23;20032;-86
2021/06/06 17:14:59;;;;;;;8.90;7.97;;;20.80;66.80;;;;;;6154058;23;20371;-85
2021/06/06 17:17:25;;;;;;;3.08;1.33;;;20.80;66.70;;;;;;6153901;23;20041;-86
2021/06/06 17:19:51;;;;;;;2.25;1.02;;;20.80;66.70;;;;;;6153954;23;20014;-86
2021/06/06 17:22:17;;;;;;;2.85;1.33;;;20.90;67.00;;;;;;6154695;23;20009;-86
2021/06/06 17:24:43;;;;;;;2.47;0.90;;;20.90;67.20;;;;;;6154362;23;20444;-86
2021/06/06 17:27:09;;;;;;;2.05;0.60;;;20.90;67.20;;;;;;6152805;23;20022;-86
2021/06/06 17:29:35;;;;;;;3.03;0.90;;;20.90;67.30;;;;;;6155903;23;20344;-85
2021/06/06 17:32:05;;;;;;;0.95;0.70;;;20.80;67.50;;;;;;6154588;23;20009;-85
2021/06/06 17:34:31;;;;;;;1.10;0.63;;;20.80;67.80;;;;;;6153340;23;20092;-86
2021/06/06 17:36:57;;;;;;;2.72;0.80;;;20.80;67.90;;;;;;6155234;23;20029;-84
2021/06/06 17:39:23;;;;;;;3.05;1.73;;;20.70;68.00;;;;;;6153295;23;20072;-83
2021/06/06 17:41:50;;;;;;;3.90;1.13;;;20.70;68.10;;;;;;6153244;23;20398;-83
2021/06/06 17:44:17;;;;;;;1.48;0.80;;;20.70;68.40;;;;;;6153162;23;20013;-84
2021/06/06 17:46:45;;;;;;;1.88;0.80;;;20.70;68.60;;;;;;6153192;23;20903;-84
2021/06/06 17:49:11;;;;;;;1.70;1.00;;;20.60;68.60;;;;;;6153875;23;20005;-86
2021/06/06 17:51:38;;;;;;;2.55;1.00;;;20.60;68.80;;;;;;6152885;23;20098;-86
2021/06/06 17:54:09;;;;;;;2.83;1.30;;;20.60;68.90;;;;;;6151706;23;20017;-85
2021/06/06 17:56:36;;;;;;;2.28;0.93;;;20.60;69.20;;;;;;6153013;23;20103;-85
2021/06/06 17:59:02;;;;;;;4.15;1.30;;;20.60;69.10;;;;;;6153812;23;20612;-85
2021/06/06 18:01:43;;;;;;;3.15;1.48;;;20.60;69.20;;;;;;6152836;23;20432;-85
2021/06/06 18:04:09;;;;;;;2.47;1.60;;;20.60;69.30;;;;;;6153005;23;20009;-85
2021/06/06 18:06:36;;;;;;;2.53;1.30;;;20.50;69.30;;;;;;6153337;23;20040;-85
2021/06/06 18:09:04;;;;;;;2.00;1.13;;;20.50;69.30;;;;;;6153414;23;20010;-85
2021/06/06 18:11:32;;;;;;;3.95;0.90;;;20.50;69.20;;;;;;6153693;23;20001;-85
2021/06/06 18:14:00;;;;;;;1.50;0.95;;;20.50;69.20;;;;;;6152868;23;20037;-85
2021/06/06 18:16:26;;;;;;;3.08;1.00;;;20.50;69.10;;;;;;6151864;23;20013;-85
2021/06/06 18:18:53;;;;;;;0.77;0.57;;;20.50;69.00;;;;;;6153175;23;20002;-85
2021/06/06 18:21:29;;;;;;;0.98;0.60;;;20.40;68.90;;;;;;6151976;23;20010;-85
2021/06/06 18:23:55;;;;;;;2.78;0.85;;;20.40;69.10;;;;;;6152685;23;20108;-85
2021/06/06 18:26:21;;;;;;;3.05;0.70;;;20.30;69.20;;;;;;6154025;23;19998;-85
2021/06/06 18:28:47;;;;;;;1.80;1.00;;;20.30;69.40;;;;;;6153207;23;20083;-85
2021/06/06 18:31:18;;;;;;;2.35;1.08;;;20.30;69.50;;;;;;6153054;23;20033;-85
2021/06/06 18:33:44;;;;;;;2.60;0.90;;;20.30;69.70;;;;;;6152357;23;20100;-85
2021/06/06 18:36:10;;;;;;;2.60;1.20;;;20.30;69.70;;;;;;6152715;23;20041;-85
2021/06/06 18:38:37;;;;;;;1.30;0.90;;;20.30;69.90;;;;;;6153801;23;20017;-85
2021/06/06 18:41:03;;;;;;;1.02;0.75;;;20.20;70.00;;;;;;6154570;23;20817;-85
2021/06/06 18:43:29;;;;;;;2.30;0.98;;;20.20;70.20;;;;;;6151440;23;20076;-85
2021/06/06 18:45:55;;;;;;;2.10;0.90;;;20.20;70.40;;;;;;6154704;23;20427;-85
2021/06/06 18:48:23;;;;;;;1.88;0.90;;;20.20;70.40;;;;;;6152307;23;20006;-85
2021/06/06 18:50:49;;;;;;;2.65;1.00;;;20.20;70.60;;;;;;6154389;23;19998;-85
2021/06/06 18:53:18;;;;;;;1.58;1.02;;;20.20;70.70;;;;;;6154094;23;20060;-85
2021/06/06 18:55:49;;;;;;;2.05;1.30;;;20.10;70.70;;;;;;6162048;23;20024;-84
2021/06/06 18:58:16;;;;;;;2.10;1.00;;;20.10;70.90;;;;;;6165473;23;20007;-85
2021/06/06 19:00:48;;;;;;;1.75;1.10;;;20.10;71.00;;;;;;6168509;23;19998;-85
2021/06/06 19:03:16;;;;;;;2.33;1.47;;;20.10;71.20;;;;;;6164436;23;20063;-85
2021/06/06 19:05:44;;;;;;;3.22;1.10;;;20.00;71.20;;;;;;6152985;23;20009;-85
2021/06/06 19:08:13;;;;;;;2.45;1.27;;;20.00;71.20;;;;;;6154133;23;20028;-85
2021/06/06 19:10:41;;;;;;;3.85;1.00;;;20.00;71.40;;;;;;6154169;23;20399;-85
2021/06/06 19:13:09;;;;;;;5.35;1.23;;;20.00;71.50;;;;;;6154111;23;20081;-84
2021/06/06 19:15:40;;;;;;;2.28;1.45;;;20.00;71.50;;;;;;6155617;23;20084;-85
2021/06/06 19:18:11;;;;;;;1.10;0.68;;;19.90;71.50;;;;;;6154208;23;20023;-85
2021/06/06 19:20:39;;;;;;;2.03;1.00;;;19.80;71.70;;;;;;6154046;23;20012;-85
2021/06/06 19:23:09;;;;;;;4.55;0.80;;;19.70;72.00;;;;;;6152678;23;20010;-85
2021/06/06 19:25:36;;;;;;;2.92;0.90;;;19.70;72.00;;;;;;6151571;23;20001;-85
2021/06/06 19:28:01;;;;;;;3.30;1.08;;;19.70;72.30;;;;;;6152110;23;20017;-85
2021/06/06 19:30:29;;;;;;;3.45;0.75;;;19.70;71.40;;;;;;6152886;23;20059;-85
2021/06/06 19:32:56;;;;;;;1.48;0.98;;;19.70;71.30;;;;;;6154431;23;19997;-85
2021/06/06 19:35:27;;;;;;;8.00;1.23;;;19.70;71.20;;;;;;6153074;23;20006;-85
2021/06/06 19:37:54;;;;;;;1.63;1.27;;;19.70;71.30;;;;;;6152648;23;20052;-85
2021/06/06 19:40:20;;;;;;;2.80;0.95;;;19.70;71.60;;;;;;6151609;23;20765;-85
2021/06/06 19:42:48;;;;;;;1.15;0.90;;;19.60;71.70;;;;;;6153916;23;20005;-85
2021/06/06 19:45:14;;;;;;;1.63;1.08;;;19.60;71.80;;;;;;6152785;23;20013;-85
2021/06/06 19:47:42;;;;;;;1.98;1.20;;;19.60;71.90;;;;;;6152331;23;20010;-85
2021/06/06 19:50:09;;;;;;;2.35;1.05;;;19.60;72.00;;;;;;6153988;23;20016;-85
2021/06/06 19:52:35;;;;;;;2.42;0.80;;;19.60;72.00;;;;;;6152504;23;20033;-85
2021/06/06 19:55:01;;;;;;;2.17;1.40;;;19.60;72.00;;;;;;6153512;23;19997;-86
2021/06/06 19:57:27;;;;;;;1.83;1.05;;;19.60;72.10;;;;;;6152096;23;20012;-85
2021/06/06 19:59:52;;;;;;;5.18;1.05;;;19.60;72.10;;;;;;6151915;23;20424;-85
2021/06/06 20:02:20;;;;;;;3.05;1.60;;;19.50;72.30;;;;;;6151671;23;20005;-85
2021/06/06 20:04:46;;;;;;;2.70;0.80;;;19.50;72.50;;;;;;6152101;23;20010;-85
2021/06/06 20:07:12;;;;;;;1.88;0.90;;;19.50;72.70;;;;;;6152108;23;20006;-85
2021/06/06 20:09:38;;;;;;;1.65;0.80;;;19.50;72.70;;;;;;6152583;23;20009;-85
2021/06/06 20:12:05;;;;;;;1.30;0.80;;;19.50;72.80;;;;;;6152175;23;20001;-85
2021/06/06 20:14:33;;;;;;;1.50;0.90;;;19.40;72.90;;;;;;6151360;23;20016;-85
2021/06/06 20:17:00;;;;;;;5.93;1.00;;;19.40;73.10;;;;;;6151573;23;20404;-85
2021/06/06 20:19:26;;;;;;;2.67;0.75;;;19.40;73.20;;;;;;6152285;23;20013;-85
2021/06/06 20:22:26;;;;;;;2.42;1.10;;;19.30;73.50;;;;;;6151981;23;20444;-85
2021/06/06 20:24:54;;;;;;;3.33;0.90;;;19.30;73.70;;;;;;6127086;23;20018;-85
2021/06/06 20:27:26;;;;;;;1.70;0.90;;;19.30;73.40;;;;;;6151582;23;20459;-85
2021/06/06 20:29:53;;;;;;;1.95;1.05;;;19.30;73.50;;;;;;6150945;23;20012;-84
2021/06/06 20:32:19;;;;;;;2.10;0.82;;;19.20;73.50;;;;;;6152229;23;20436;-85
2021/06/06 20:37:14;;;;;;;1.00;0.63;;;19.20;73.80;;;;;;6153493;23;20061;-86
2021/06/06 20:39:43;;;;;;;3.53;0.93;;;19.20;74.10;;;;;;6152240;23;20006;-85
2021/06/06 20:42:13;;;;;;;1.75;1.02;;;19.20;74.30;;;;;;6151905;23;20005;-85
2021/06/06 20:44:39;;;;;;;4.72;1.10;;;19.10;74.30;;;;;;6151301;23;20009;-84
2021/06/06 20:47:09;;;;;;;3.00;1.20;;;19.10;74.40;;;;;;6151418;23;20012;-84
2021/06/06 20:49:36;;;;;;;2.28;1.05;;;19.10;74.60;;;;;;6153266;23;20044;-84
2021/06/06 20:52:03;;;;;;;1.10;0.70;;;19.00;74.70;;;;;;6151595;23;19998;-84
2021/06/06 20:54:28;;;;;;;2.17;1.33;;;19.00;74.50;;;;;;6151744;23;20060;-85
2021/06/06 20:56:54;;;;;;;2.65;0.80;;;19.00;74.50;;;;;;6150864;23;20009;-84
2021/06/06 20:59:21;;;;;;;0.98;0.60;;;19.00;74.40;;;;;;6151973;23;20009;-85
2021/06/06 21:01:46;;;;;;;2.45;0.70;;;19.00;74.60;;;;;;6152427;23;20010;-84
2021/06/06 21:04:13;;;;;;;6.75;1.33;;;19.00;74.60;;;;;;6152963;23;20072;-85
2021/06/06 21:06:40;;;;;;;1.00;0.70;;;19.00;74.80;;;;;;6153713;23;19997;-84
2021/06/06 21:09:07;;;;;;;0.88;0.60;;;18.90;74.80;;;;;;6153750;23;20424;-83
2021/06/06 21:11:34;;;;;;;3.60;1.05;;;18.90;75.60;;;;;;6152519;23;20458;-84
2021/06/06 21:14:00;;;;;;;2.63;0.80;;;18.90;75.10;;;;;;6153443;23;20010;-84
2021/06/06 21:16:29;;;;;;;2.38;0.50;;;18.90;75.10;;;;;;6153305;23;20010;-85
2021/06/06 21:18:56;;;;;;;2.90;0.70;;;18.90;75.00;;;;;;6153295;23;20005;-84
2021/06/06 21:21:22;;;;;;;3.72;1.10;;;18.90;75.00;;;;;;6152905;23;20790;-85
2021/06/06 21:23:48;;;;;;;1.95;0.68;;;18.90;75.10;;;;;;6153044;23;20016;-84
2021/06/06 21:26:18;;;;;;;3.22;0.90;;;18.90;75.00;;;;;;6154025;23;20068;-84
2021/06/06 21:28:46;;;;;;;1.98;0.85;;;19.00;74.90;;;;;;6154982;23;20032;-85
2021/06/06 21:31:15;;;;;;;4.57;1.08;;;19.00;75.00;;;;;;6153001;23;20006;-83
2021/06/06 21:33:41;;;;;;;2.72;1.30;;;18.90;75.10;;;;;;6153076;23;20682;-85
2021/06/06 21:36:11;;;;;;;2.50;0.95;;;18.90;75.20;;;;;;6152901;23;20005;-85
2021/06/06 21:38:37;;;;;;;5.45;1.02;;;18.90;75.20;;;;;;6152896;23;20013;-84
2021/06/06 21:41:04;;;;;;;3.00;0.80;;;18.90;75.10;;;;;;6152734;23;20009;-85
2021/06/06 21:43:30;;;;;;;3.88;1.30;;;19.00;75.30;;;;;;6154228;23;20006;-85
2021/06/06 21:45:56;;;;;;;3.63;0.90;;;18.90;75.20;;;;;;6152198;23;20005;-85
2021/06/06 21:48:26;;;;;;;1.13;0.90;;;18.90;75.30;;;;;;6155061;23;20060;-85
2021/06/06 21:50:54;;;;;;;1.25;1.08;;;18.90;75.30;;;;;;6152807;23;20063;-85
2021/06/06 21:53:21;;;;;;;1.48;1.13;;;18.90;75.30;;;;;;6153084;23;20343;-84
2021/06/06 21:55:48;;;;;;;1.48;0.80;;;18.90;75.30;;;;;;6152278;23;20005;-84
2021/06/06 21:58:14;;;;;;;0.95;0.80;;;18.90;75.30;;;;;;6152935;23;20005;-85
2021/06/06 22:00:47;;;;;;;3.03;0.90;;;18.80;75.20;;;;;;6152568;23;20017;-84
2021/06/06 22:03:13;;;;;;;;;;;18.80;75.30;;;;;;6153806;23;20030;-84
2021/06/06 22:05:40;;;;;;;2.70;1.10;;;18.80;75.10;;;;;;6152900;23;19906;-84
2021/06/06 22:08:12;;;;;;;2.13;1.10;;;18.80;75.20;;;;;;6152576;23;20013;-84
2021/06/06 22:10:40;;;;;;;1.77;0.80;;;18.70;75.40;;;;;;6153215;23;20002;-84
2021/06/06 22:13:06;;;;;;;2.55;0.95;;;18.70;75.60;;;;;;6151960;23;20021;-84
2021/06/06 22:15:32;;;;;;;3.65;1.90;;;18.70;75.60;;;;;;6152009;23;20012;-84
2021/06/06 22:17:59;;;;;;;2.00;1.10;;;18.70;75.70;;;;;;6152707;23;20085;-84
2021/06/06 22:21:02;;;;;;;2.30;1.02;;;18.70;75.90;;;;;;6153203;23;20369;-84
2021/06/06 22:24:05;;;;;;;2.85;1.17;;;18.70;76.20;;;;;;6152976;23;20009;-84
2021/06/06 22:26:50;;;;;;;;;;;18.70;76.30;;;;;;6152122;23;20005;-85
2021/06/06 22:29:53;;;;;;;1.85;1.67;;;18.60;75.90;;;;;;6152434;23;19908;-85
2021/06/06 22:32:38;;;;;;;;;;;18.60;76.60;;;;;;6153345;23;20479;-85
2021/06/06 22:35:41;;;;;;;5.32;1.00;;;18.60;76.00;;;;;;6152772;23;20239;-85
2021/06/06 22:38:44;;;;;;;2.67;0.85;;;18.60;75.90;;;;;;6152914;23;20407;-85
2021/06/06 22:41:47;;;;;;;1.67;0.75;;;18.60;76.10;;;;;;6152380;23;20115;-85
2021/06/06 22:44:31;;;;;;;;;;;18.50;76.10;;;;;;6153384;23;20002;-85
2021/06/06 22:47:34;;;;;;;1.00;0.68;;;18.50;75.90;;;;;;6154388;23;19923;-85
2021/06/06 22:50:38;;;;;;;3.50;0.70;;;18.50;76.00;;;;;;6152602;23;20376;-84
2021/06/06 22:53:41;;;;;;;2.88;0.70;;;18.50;76.20;;;;;;6152719;23;20001;-84
2021/06/06 22:56:25;;;;;;;;;;;18.40;76.20;;;;;;6152083;23;20006;-84
2021/06/06 22:59:28;;;;;;;1.67;0.95;;;18.40;76.00;;;;;;6152680;23;19907;-84
2021/06/06 23:02:13;;;;;;;;;;;18.40;76.30;;;;;;6153012;23;20006;-85
2021/06/06 23:05:16;;;;;;;3.78;1.13;;;18.40;76.10;;;;;;6152029;23;19904;-85
2021/06/06 23:08:00;;;;;;;;;;;18.40;76.30;;;;;;6152969;23;20079;-85
2021/06/06 23:11:04;;;;;;;1.35;1.13;;;18.30;76.10;;;;;;6152242;23;19913;-85
2021/06/06 23:14:06;;;;;;;3.22;1.58;;;18.30;76.50;;;;;;6153356;23;20535;-85
2021/06/06 23:16:51;;;;;;;7.00;1.42;;;18.30;76.70;;;;;;6153721;23;20009;-85
2021/06/06 23:19:24;;;;;;;3.70;1.73;;;18.40;76.90;;;;;;6152393;23;20013;-85
2021/06/06 23:21:54;;;;;;;5.10;1.33;;;18.30;76.90;;;;;;6151629;23;20005;-85
2021/06/06 23:24:20;;;;;;;3.92;1.42;;;18.30;76.90;;;;;;6151517;23;20010;-84
2021/06/06 23:26:47;;;;;;;1.15;0.68;;;18.40;76.80;;;;;;6153385;23;20336;-85
2021/06/06 23:29:13;;;;;;;1.52;0.60;;;18.40;76.60;;;;;;6152354;23;20001;-84
2021/06/06 23:31:39;;;;;;;1.80;0.55;;;18.40;76.50;;;;;;6151706;23;20076;-85
2021/06/06 23:34:05;;;;;;;1.05;0.70;;;18.40;76.50;;;;;;6152415;23;20010;-84
2021/06/06 23:36:31;;;;;;;5.38;0.82;;;18.40;76.70;;;;;;6153923;23;20081;-85
2021/06/06 23:38:56;;;;;;;3.17;0.80;;;18.40;76.80;;;;;;6153881;23;20001;-84
2021/06/06 23:41:23;;;;;;;10.90;0.98;;;18.30;76.80;;;;;;6151752;23;20094;-84
2021/06/06 23:43:49;;;;;;;1.58;0.68;;;18.30;76.80;;;;;;6152964;23;20053;-84
2021/06/06 23:46:15;;;;;;;4.80;0.82;;;18.30;76.90;;;;;;6152254;23;20061;-84
2021/06/06 23:48:41;;;;;;;1.67;0.80;;;18.30;77.00;;;;;;6153736;23;20001;-84
2021/06/06 23:51:06;;;;;;;2.08;0.95;;;18.30;77.10;;;;;;6154287;23;20002;-85
2021/06/06 23:53:34;;;;;;;1.52;0.80;;;18.30;77.10;;;;;;6173704;23;20005;-84
2021/06/06 23:56:01;;;;;;;1.38;0.70;;;18.30;77.10;;;;;;6174786;23;20010;-84
2021/06/06 23:58:26;;;;;;;1.25;0.60;;;18.30;77.00;;;;;;6172219;23;20017;-84
